Time;durP1;ratioP1;P1;durP2;ratioP2;P2;SDS_P1;SDS_P2;PMS_P1;PMS_P2;Temp;Humidity;BMP_temperature;BMP_pressure;BME280_temperature;BME280_humidity;BME280_pressure;Samples;Min_cycle;Max_cycle;Signal;HPM_P1;HPM_P2
2023/01/24 00:00:23;;;;;;;20.10;11.52;;;;;;;1.93;90.79;103733.03;5047858;28;20373;-74
2023/01/24 00:02:49;;;;;;;22.67;11.55;;;;;;;1.96;90.86;103742.03;5033229;28;20140;-74
2023/01/24 00:05:14;;;;;;;22.40;10.98;;;;;;;1.99;90.04;103733.09;5046805;28;20490;-73
2023/01/24 00:07:39;;;;;;;19.05;9.82;;;;;;;1.98;90.65;103726.81;5049545;28;20032;-73
2023/01/24 00:10:06;;;;;;;24.50;12.60;;;;;;;1.99;90.59;103739.34;5031722;28;20084;-73
2023/01/24 00:12:31;;;;;;;22.08;12.07;;;;;;;2.00;90.60;103729.50;5013112;28;20421;-73
2023/01/24 00:14:57;;;;;;;22.95;11.10;;;;;;;1.99;90.07;103734.00;5029985;28;20056;-73
2023/01/24 00:17:24;;;;;;;21.63;10.43;;;;;;;1.99;90.11;103734.00;5030841;28;20033;-73
2023/01/24 00:19:49;;;;;;;20.65;10.75;;;;;;;2.03;89.93;103734.94;5034268;28;20113;-73
2023/01/24 00:22:16;;;;;;;25.00;11.38;;;;;;;1.99;89.96;103742.03;5031116;28;20029;-73
2023/01/24 00:24:41;;;;;;;20.27;10.48;;;;;;;1.99;90.17;103738.47;5030283;28;20417;-73
2023/01/24 00:27:06;;;;;;;22.58;11.43;;;;;;;1.99;90.54;103733.09;5029632;28;20022;-73
2023/01/24 00:29:32;;;;;;;29.08;11.80;;;;;;;1.99;89.95;103736.69;5030899;28;20270;-73
2023/01/24 00:31:57;;;;;;;21.48;10.57;;;;;;;1.97;90.07;103733.09;5032213;28;20488;-73
2023/01/24 00:34:22;;;;;;;22.30;11.32;;;;;;;1.97;90.15;103726.81;5037609;28;20036;-73
2023/01/24 00:36:48;;;;;;;21.55;11.02;;;;;;;1.96;90.75;103719.66;5030695;28;20067;-73
2023/01/24 00:39:13;;;;;;;22.50;11.32;;;;;;;1.95;90.97;103721.41;5030288;28;20124;-75
2023/01/24 00:41:39;;;;;;;23.50;11.25;;;;;;;1.98;90.57;103715.19;5031230;28;20023;-73
2023/01/24 00:44:04;;;;;;;25.20;12.15;;;;;;;1.96;90.86;103715.19;5030404;28;20114;-73
2023/01/24 00:46:29;;;;;;;23.20;11.48;;;;;;;1.93;90.65;103709.78;5030267;28;20029;-74
2023/01/24 00:48:55;;;;;;;20.33;8.82;;;;;;;1.95;91.12;103715.16;5034681;28;20116;-74
2023/01/24 00:51:20;;;;;;;19.55;8.60;;;;;;;1.96;90.42;103715.19;5028886;28;20076;-73
2023/01/24 00:53:46;;;;;;;21.08;10.55;;;;;;;1.98;89.94;103712.50;5029259;28;20044;-73
2023/01/24 00:56:11;;;;;;;25.10;11.57;;;;;;;1.93;90.51;103712.47;5030514;28;20045;-74
2023/01/24 00:58:36;;;;;;;22.73;11.73;;;;;;;1.90;90.44;103706.16;5029007;28;20041;-73
2023/01/24 01:01:02;;;;;;;23.05;11.10;;;;;;;1.92;90.29;103709.78;5028617;28;20079;-73
2023/01/24 01:03:28;;;;;;;24.55;12.35;;;;;;;1.86;90.06;103705.22;5030041;28;20040;-73
2023/01/24 01:06:04;;;;;;;24.38;12.18;;;;;;;1.89;90.74;103701.69;5028400;28;20037;-72
2023/01/24 01:08:30;;;;;;;23.15;11.15;;;;;;;1.88;90.78;103702.56;5028853;28;20396;-73
2023/01/24 01:10:55;;;;;;;25.90;12.43;;;;;;;1.88;91.15;103702.56;5028726;28;20023;-74
2023/01/24 01:13:22;;;;;;;22.45;11.40;;;;;;;1.87;90.69;103704.38;5028500;28;20037;-73
2023/01/24 01:15:47;;;;;;;20.60;10.75;;;;;;;1.86;91.30;103693.59;5028550;28;20032;-73
2023/01/24 01:18:12;;;;;;;24.40;11.48;;;;;;;1.82;91.84;103690.00;5028709;28;20033;-73
2023/01/24 01:20:38;;;;;;;22.95;11.18;;;;;;;1.83;91.22;103696.25;5045484;28;20389;-74
2023/01/24 01:23:03;;;;;;;21.10;10.15;;;;;;;1.86;89.88;103690.91;5046568;28;20037;-73
2023/01/24 01:25:29;;;;;;;20.13;11.00;;;;;;;1.81;90.72;103689.97;5028428;28;20116;-73
2023/01/24 01:27:54;;;;;;;24.48;11.73;;;;;;;1.79;90.72;103696.22;5030631;28;20048;-73
2023/01/24 01:30:20;;;;;;;19.48;9.80;;;;;;;1.84;89.97;103703.41;5033502;28;20477;-73
2023/01/24 01:32:45;;;;;;;21.63;10.07;;;;;;;1.87;89.38;103701.69;5039255;28;20037;-73
2023/01/24 01:35:11;;;;;;;19.75;9.63;;;;;;;1.85;90.08;103700.75;5041279;28;20365;-73
2023/01/24 01:37:37;;;;;;;20.35;10.00;;;;;;;1.85;90.35;103706.13;5049676;28;20115;-73
2023/01/24 01:40:03;;;;;;;21.90;10.23;;;;;;;1.83;90.59;103707.91;5029994;28;20113;-73
2023/01/24 01:42:52;;;;;;;23.23;10.43;;;;;;;1.81;91.14;103709.66;5027979;28;20184;-73
2023/01/24 01:45:27;;;;;;;20.05;10.43;;;;;;;1.81;91.66;103700.69;5029425;28;20038;-75
2023/01/24 01:47:52;;;;;;;22.55;11.07;;;;;;;1.78;90.82;103693.53;5029369;28;20045;-73
2023/01/24 01:50:40;;;;;;;19.60;9.63;;;;;;;1.81;91.14;103695.34;5027965;28;20029;-74
2023/01/24 01:53:06;;;;;;;23.75;10.85;;;;;;;1.80;90.90;103702.50;5027824;28;20069;-73
2023/01/24 01:55:35;;;;;;;22.95;11.25;;;;;;;1.81;91.24;103698.00;5028051;28;20061;-73
2023/01/24 01:58:01;;;;;;;23.13;10.15;;;;;;;1.78;91.21;103688.16;5029220;28;20473;-73
2023/01/24 02:00:27;;;;;;;22.48;10.98;;;;;;;1.81;91.25;103695.34;5048963;28;20044;-73
2023/01/24 02:05:59;;;;;;;22.55;10.95;;;;;;;1.77;91.51;103691.72;5027813;28;20117;-73
2023/01/24 02:08:26;;;;;;;24.60;11.32;;;;;;;1.79;91.38;103695.31;5029211;28;20041;-72
2023/01/24 02:13:39;;;;;;;22.55;10.88;;;;;;;1.77;92.33;103694.38;5028945;28;20036;-72
2023/01/24 02:16:06;;;;;;;23.38;11.77;;;;;;;1.77;91.41;103686.34;5029145;28;20050;-72
2023/01/24 02:18:38;;;;;;;23.70;12.18;;;;;;;1.79;91.35;103688.16;5027813;28;20112;-73
2023/01/24 02:21:09;;;;;;;25.00;12.45;;;;;;;1.79;91.72;103689.97;5028254;28;20456;-74
2023/01/24 02:23:57;;;;;;;27.40;12.23;;;;;;;1.78;92.02;103689.06;5027945;28;20412;-73
2023/01/24 02:26:25;;;;;;;23.38;11.35;;;;;;;1.78;92.13;103685.47;5029384;28;20512;-73
2023/01/24 02:29:02;;;;;;;23.63;11.80;;;;;;;1.78;92.61;103690.84;5027617;28;20025;-72
2023/01/24 02:31:28;;;;;;;23.33;11.75;;;;;;;1.75;92.69;103683.66;5029255;28;20033;-72
2023/01/24 02:33:53;;;;;;;23.13;11.60;;;;;;;1.74;92.58;103684.53;5027070;28;20064;-72
2023/01/24 02:36:22;;;;;;;26.08;11.98;;;;;;;1.76;92.58;103690.81;5011605;28;20073;-73
2023/01/24 02:38:57;;;;;;;30.95;13.93;;;;;;;1.76;92.63;103692.59;5027697;28;20042;-73
2023/01/24 02:41:28;;;;;;;27.98;13.50;;;;;;;1.75;92.76;103689.03;5027587;28;20041;-73
2023/01/24 02:43:56;;;;;;;26.85;13.00;;;;;;;1.73;92.75;103687.22;5028607;28;20053;-73
2023/01/24 02:46:21;;;;;;;24.75;12.95;;;;;;;1.71;93.04;103687.19;5028747;28;20090;-73
2023/01/24 02:48:50;;;;;;;23.55;12.40;;;;;;;1.70;93.02;103688.06;5031744;28;20053;-73
2023/01/24 02:53:59;;;;;;;25.92;13.15;;;;;;;1.70;92.64;103690.75;5040346;28;20036;-73
2023/01/24 02:59:22;;;;;;;26.52;12.55;;;;;;;1.69;92.78;103685.38;5019896;28;20042;-74
2023/01/24 03:01:48;;;;;;;27.13;13.05;;;;;;;1.68;92.81;103687.19;5031115;28;20160;-74
2023/01/24 03:04:15;;;;;;;25.30;12.57;;;;;;;1.70;92.71;103687.19;5034300;28;20068;-73
2023/01/24 03:06:41;;;;;;;28.50;12.88;;;;;;;1.67;93.11;103687.13;5015222;28;20061;-73
2023/01/24 03:09:18;;;;;;;27.92;13.65;;;;;;;1.65;93.07;103678.19;5030660;28;20606;-73
2023/01/24 03:11:49;;;;;;;25.92;12.55;;;;;;;1.62;93.37;103679.03;5031064;28;20037;-73
2023/01/24 03:36:31;;;;;;;28.50;13.65;;;;;;;1.59;93.57;103679.03;5030711;28;20462;-73
2023/01/24 03:41:40;;;;;;;28.70;14.50;;;;;;;1.56;94.11;103672.72;5032199;28;20030;-73
2023/01/24 03:44:06;;;;;;;29.00;15.27;;;;;;;1.54;93.76;103678.09;5030188;28;20394;-74
2023/01/24 03:46:31;;;;;;;26.45;13.95;;;;;;;1.53;93.58;103678.94;5030364;28;20029;-75
2023/01/24 03:48:57;;;;;;;26.20;14.10;;;;;;;1.52;93.72;103674.47;5029954;28;20123;-73
2023/01/24 03:54:14;;;;;;;28.35;13.02;;;;;;;1.50;93.42;103679.81;5042397;28;20356;-74
2023/01/24 03:56:50;;;;;;;28.35;13.75;;;;;;;1.51;93.49;103678.03;5050255;28;20110;-73
2023/01/24 03:59:17;;;;;;;29.95;14.68;;;;;;;1.51;93.24;103683.41;5038873;28;20038;-75
2023/01/24 04:01:42;;;;;;;27.85;14.18;;;;;;;1.50;93.43;103676.25;5030535;28;20037;-73
2023/01/24 04:04:14;;;;;;;27.95;12.95;;;;;;;1.48;94.09;103678.00;5034024;28;20505;-73
2023/01/24 04:06:40;;;;;;;27.40;12.60;;;;;;;1.46;94.21;103674.41;5033657;28;20044;-75
2023/01/24 04:09:09;;;;;;;26.63;13.55;;;;;;;1.45;94.28;103678.88;5039002;28;20037;-73
2023/01/24 04:11:35;;;;;;;31.33;14.65;;;;;;;1.44;94.82;103679.75;5029901;28;20171;-73
2023/01/24 04:14:10;;;;;;;29.90;14.25;;;;;;;1.46;94.92;103682.47;5030253;28;20087;-73
2023/01/24 04:16:45;;;;;;;28.45;13.02;;;;;;;1.45;94.62;103680.66;5046706;28;20481;-73
2023/01/24 04:19:18;;;;;;;26.25;13.57;;;;;;;1.44;95.06;103686.88;5039017;28;20064;-73
2023/01/24 04:21:44;;;;;;;28.27;13.75;;;;;;;1.42;94.64;103681.50;5029590;28;20042;-74
2023/01/24 04:24:10;;;;;;;28.95;12.98;;;;;;;1.41;94.56;103676.16;5029776;28;20484;-73
2023/01/24 04:26:38;;;;;;;27.05;13.75;;;;;;;1.41;94.47;103676.16;5029488;28;20033;-75
2023/01/24 04:29:06;;;;;;;27.67;12.93;;;;;;;1.41;94.73;103684.19;5049110;28;20028;-73
2023/01/24 04:31:31;;;;;;;29.17;13.02;;;;;;;1.37;94.86;103677.00;5049539;28;20502;-74
2023/01/24 04:34:11;;;;;;;27.15;13.15;;;;;;;1.34;94.77;103671.56;5036414;28;20124;-73
2023/01/24 04:36:38;;;;;;;28.50;14.07;;;;;;;1.39;94.94;103684.16;5029922;28;20065;-74
2023/01/24 04:39:04;;;;;;;25.52;13.38;;;;;;;1.37;94.86;103674.31;5029275;28;20512;-73
2023/01/24 04:41:36;;;;;;;26.80;12.60;;;;;;;1.35;94.96;103685.00;5029373;28;20049;-73
2023/01/24 04:44:01;;;;;;;25.02;12.32;;;;;;;1.37;94.34;103683.25;5029030;28;20085;-73
2023/01/24 04:46:28;;;;;;;26.35;13.80;;;;;;;1.37;94.28;103691.28;5029421;28;20075;-73
2023/01/24 04:48:55;;;;;;;23.70;12.30;;;;;;;1.35;94.56;103682.31;5028858;28;20040;-74
2023/01/24 04:51:25;;;;;;;24.70;12.32;;;;;;;1.33;94.40;103686.78;5013549;28;20845;-73
2023/01/24 04:53:51;;;;;;;25.33;13.38;;;;;;;1.31;94.24;103688.56;5029211;28;20030;-73
2023/01/24 04:56:20;;;;;;;26.67;12.18;;;;;;;1.31;94.33;103696.59;5029000;28;20087;-73
2023/01/24 04:58:46;;;;;;;27.98;13.27;;;;;;;1.32;94.86;103692.13;5029154;28;20034;-73
2023/01/24 05:01:12;;;;;;;25.27;13.23;;;;;;;1.31;94.13;103688.56;5029275;28;20116;-73
2023/01/24 05:03:48;;;;;;;28.23;12.50;;;;;;;1.31;94.42;103693.03;5040799;28;20029;-73
2023/01/24 05:06:13;;;;;;;24.98;12.48;;;;;;;1.31;94.16;103691.22;5029154;28;20025;-74
2023/01/24 05:08:39;;;;;;;24.77;12.40;;;;;;;1.28;94.22;103675.09;5028873;28;20397;-73
2023/01/24 05:11:04;;;;;;;26.00;13.27;;;;;;;1.30;94.41;103691.19;5028559;28;20045;-73
2023/01/24 05:13:34;;;;;;;24.85;12.63;;;;;;;1.27;94.53;103686.72;5028761;28;20033;-75
2023/01/24 05:15:59;;;;;;;29.30;13.57;;;;;;;1.26;94.24;103692.97;5028530;28;20051;-73
2023/01/24 05:18:24;;;;;;;25.85;11.95;;;;;;;1.27;94.92;103700.13;5031505;28;20164;-73
2023/01/24 05:20:50;;;;;;;26.00;13.13;;;;;;;1.26;95.19;103696.53;5030131;28;20094;-73
2023/01/24 05:23:16;;;;;;;25.38;12.48;;;;;;;1.26;94.95;103695.66;5031065;28;20381;-73
2023/01/24 05:25:44;;;;;;;27.23;12.13;;;;;;;1.28;94.37;103701.91;5048381;28;20040;-75
2023/01/24 05:28:10;;;;;;;24.33;12.18;;;;;;;1.25;94.86;103700.06;5048846;28;20051;-74
2023/01/24 05:30:40;;;;;;;24.48;11.55;;;;;;;1.26;94.84;103699.22;5040374;28;20027;-74
2023/01/24 05:33:17;;;;;;;22.38;11.73;;;;;;;1.27;94.08;103700.13;5040866;28;20452;-73
2023/01/24 05:35:44;;;;;;;24.85;11.25;;;;;;;1.24;94.30;103692.03;5044313;28;20076;-74
2023/01/24 05:38:10;;;;;;;25.83;12.43;;;;;;;1.23;94.63;103698.28;5046952;28;20075;-73
2023/01/24 05:40:37;;;;;;;26.75;12.18;;;;;;;1.21;95.03;103698.28;5028221;28;20037;-73
2023/01/24 05:43:02;;;;;;;22.20;12.85;;;;;;;1.19;94.62;103705.38;5028117;28;20103;-73
2023/01/24 05:45:28;;;;;;;23.75;12.25;;;;;;;1.20;94.54;103706.28;5011955;28;20033;-73
2023/01/24 05:47:55;;;;;;;22.60;11.38;;;;;;;1.18;94.55;103708.94;5027938;28;20029;-73
2023/01/24 05:50:23;;;;;;;22.83;12.55;;;;;;;1.16;94.78;103710.69;5028148;28;20037;-74
2023/01/24 05:53:09;;;;;;;25.63;13.23;;;;;;;1.18;94.82;103717.00;5029691;28;20041;-73
2023/01/24 05:55:34;;;;;;;20.70;11.30;;;;;;;1.17;94.82;103728.59;5028101;28;20429;-73
2023/01/24 05:58:00;;;;;;;26.75;11.32;;;;;;;1.16;94.93;103723.19;5028101;28;20147;-73
2023/01/24 06:00:49;;;;;;;24.38;11.15;;;;;;;1.15;94.72;103726.75;5025235;28;20044;-73
2023/01/24 06:03:28;;;;;;;22.50;10.68;;;;;;;1.13;94.55;103729.44;5029464;28;20400;-73
2023/01/24 06:05:55;;;;;;;25.20;13.02;;;;;;;1.13;95.33;103731.22;5029483;28;20061;-73
2023/01/24 06:08:22;;;;;;;24.52;12.23;;;;;;;1.10;95.42;103726.69;5028176;28;20021;-73
2023/01/24 06:10:48;;;;;;;28.00;13.02;;;;;;;1.10;95.05;103726.69;5027835;28;20500;-73
2023/01/24 06:13:13;;;;;;;23.05;12.40;;;;;;;1.10;95.23;103732.06;5028242;28;20025;-75
2023/01/24 06:15:40;;;;;;;23.48;11.25;;;;;;;1.10;95.52;103733.84;5028244;28;20513;-73
2023/01/24 06:18:13;;;;;;;24.92;12.75;;;;;;;1.08;95.25;103725.78;5027966;28;20060;-73
2023/01/24 06:20:39;;;;;;;25.13;11.98;;;;;;;1.12;95.59;103737.44;5028087;28;20037;-73
2023/01/24 06:23:07;;;;;;;25.95;12.25;;;;;;;1.12;95.57;103732.06;5032500;28;20037;-72
2023/01/24 06:25:37;;;;;;;;;;;;;;;1.14;95.47;103738.38;5036353;28;20066;-73
2023/01/24 06:28:03;;;;;;;22.70;11.32;;;;;;;1.15;95.22;103734.81;5051752;28;20298;-73
2023/01/24 06:30:28;;;;;;;26.33;12.23;;;;;;;1.16;94.66;103732.13;5053052;28;20032;-73
2023/01/24 06:33:04;;;;;;;23.45;11.75;;;;;;;1.11;95.17;103741.00;5041840;28;20052;-73
2023/01/24 06:35:39;;;;;;;27.60;12.95;;;;;;;1.08;95.19;103741.88;5036454;28;20044;-73
2023/01/24 06:38:05;;;;;;;26.52;12.55;;;;;;;1.07;95.61;103756.13;5031648;28;20052;-73
2023/01/24 06:40:30;;;;;;;30.90;14.13;;;;;;;1.05;96.08;103736.47;5032978;28;20071;-74
2023/01/24 06:42:56;;;;;;;29.42;14.43;;;;;;;1.05;95.82;103751.66;5032605;28;20033;-74
2023/01/24 06:45:22;;;;;;;24.85;12.55;;;;;;;1.05;95.89;103747.19;5032929;28;20052;-73
2023/01/24 06:47:47;;;;;;;26.92;14.15;;;;;;;1.05;96.12;103752.56;5031612;28;20467;-72
2023/01/24 06:50:17;;;;;;;28.35;13.10;;;;;;;1.06;96.46;103757.03;5032853;28;20083;-72
2023/01/24 06:52:48;;;;;;;25.15;13.10;;;;;;;1.07;96.37;103761.50;5015427;28;20018;-73
2023/01/24 06:55:14;;;;;;;23.88;12.98;;;;;;;1.07;96.22;103758.81;5032687;28;20037;-73
2023/01/24 06:57:40;;;;;;;29.83;13.88;;;;;;;1.07;95.84;103755.25;5031636;28;20508;-75
2023/01/24 07:00:06;;;;;;;28.88;13.55;;;;;;;1.03;95.95;103746.28;5031214;28;20033;-73
2023/01/24 07:02:32;;;;;;;24.23;13.25;;;;;;;1.00;95.66;103748.91;5032669;28;20034;-73
2023/01/24 07:04:57;;;;;;;26.42;12.65;;;;;;;0.98;95.48;103745.31;5032124;28;20041;-74
2023/01/24 07:07:23;;;;;;;26.90;13.30;;;;;;;0.99;95.82;103755.16;5032436;28;20028;-73
2023/01/24 07:09:48;;;;;;;26.88;13.85;;;;;;;0.98;96.34;103756.03;5033103;28;20037;-73
2023/01/24 07:12:13;;;;;;;25.48;13.25;;;;;;;0.96;96.38;103755.09;5031497;28;20489;-75
2023/01/24 07:14:39;;;;;;;25.25;13.02;;;;;;;0.96;96.21;103755.09;5032589;28;20029;-74
2023/01/24 07:17:04;;;;;;;28.08;14.55;;;;;;;0.96;96.00;103757.78;5032337;28;20028;-73
2023/01/24 07:19:30;;;;;;;28.50;14.48;;;;;;;0.95;96.31;103766.72;5032200;28;20041;-73
2023/01/24 07:21:56;;;;;;;29.55;14.32;;;;;;;0.96;95.62;103777.44;5030843;28;20040;-72
2023/01/24 07:24:25;;;;;;;31.90;15.75;;;;;;;0.97;95.71;103781.03;5030705;28;20044;-72
2023/01/24 07:26:51;;;;;;;28.52;13.50;;;;;;;0.95;95.93;103789.03;5030917;28;20456;-73
2023/01/24 07:29:18;;;;;;;29.02;14.32;;;;;;;0.95;95.99;103785.47;5031638;28;20042;-74
2023/01/24 07:31:43;;;;;;;30.20;14.82;;;;;;;0.95;95.63;103789.03;5032182;28;20032;-73
2023/01/24 07:34:08;;;;;;;28.17;13.85;;;;;;;0.91;95.86;103783.63;5029394;28;20033;-73
2023/01/24 07:36:34;;;;;;;28.02;13.02;;;;;;;0.93;96.04;103784.53;5031990;28;20029;-75
2023/01/24 07:38:59;;;;;;;27.52;15.55;;;;;;;0.91;96.08;103797.91;5030055;28;20029;-74
2023/01/24 07:41:24;;;;;;;28.98;14.18;;;;;;;0.90;96.19;103788.09;5031963;28;20128;-73
2023/01/24 07:43:53;;;;;;;28.67;13.93;;;;;;;0.89;96.27;103791.66;5029988;28;20046;-73
2023/01/24 07:46:19;;;;;;;26.92;14.65;;;;;;;0.88;95.92;103781.78;5030397;28;20045;-73
2023/01/24 07:48:44;;;;;;;27.52;13.43;;;;;;;0.92;96.22;103802.38;5029849;28;20079;-73
2023/01/24 07:51:09;;;;;;;29.08;14.50;;;;;;;0.90;96.17;103789.88;5050463;28;20040;-73
2023/01/24 07:53:35;;;;;;;30.23;14.70;;;;;;;0.90;96.31;103792.53;5045593;28;20040;-73
2023/01/24 07:56:01;;;;;;;26.90;13.10;;;;;;;0.89;96.22;103798.78;5031640;28;20108;-73
2023/01/24 07:58:27;;;;;;;29.55;14.32;;;;;;;0.87;96.14;103801.41;5031253;28;20087;-74
2023/01/24 08:00:53;;;;;;;27.17;14.35;;;;;;;0.88;96.09;103807.69;5031145;28;20033;-73
2023/01/24 08:03:18;;;;;;;32.72;14.38;;;;;;;0.85;96.70;103805.88;5031134;28;20500;-73
2023/01/24 08:05:44;;;;;;;29.23;13.95;;;;;;;0.86;96.60;103807.66;5031566;28;20465;-74
2023/01/24 08:08:09;;;;;;;32.70;15.00;;;;;;;0.90;96.22;103808.63;5032136;28;20048;-73
2023/01/24 08:10:35;;;;;;;31.48;15.85;;;;;;;0.88;96.55;103805.91;5030531;28;20029;-73
2023/01/24 08:13:00;;;;;;;28.67;14.13;;;;;;;0.89;96.15;103810.41;5031201;28;20056;-73
2023/01/24 08:15:26;;;;;;;26.98;14.13;;;;;;;0.91;95.98;103810.41;5031103;28;20075;-73
2023/01/24 08:17:51;;;;;;;27.40;14.27;;;;;;;0.89;96.38;103805.03;5031164;28;20033;-73
2023/01/24 08:20:16;;;;;;;27.33;13.88;;;;;;;0.87;96.59;103801.41;5030635;28;20116;-72
2023/01/24 08:22:42;;;;;;;30.08;14.90;;;;;;;0.89;96.88;103815.75;5031410;28;20084;-73
2023/01/24 08:25:08;;;;;;;27.23;13.48;;;;;;;0.88;96.23;103800.53;5030617;28;20500;-73
2023/01/24 08:27:34;;;;;;;28.80;14.00;;;;;;;0.89;96.49;103810.41;5031074;28;20525;-73
2023/01/24 08:30:00;;;;;;;29.38;14.00;;;;;;;0.89;96.50;103809.50;5029627;28;20120;-73
2023/01/24 08:32:25;;;;;;;28.98;13.95;;;;;;;0.88;96.15;103810.34;5036445;28;20082;-73
2023/01/24 08:34:51;;;;;;;27.45;13.85;;;;;;;0.89;96.64;103815.75;5037133;28;20124;-73
2023/01/24 08:37:16;;;;;;;26.65;12.48;;;;;;;0.90;96.88;103830.97;5031097;28;20044;-73
2023/01/24 08:39:42;;;;;;;31.08;15.45;;;;;;;0.92;96.60;103820.25;5030620;28;20042;-72
2023/01/24 08:42:08;;;;;;;30.92;13.88;;;;;;;0.93;95.99;103830.09;5030603;28;20042;-72
2023/01/24 08:44:34;;;;;;;30.67;15.60;;;;;;;0.89;95.70;103830.94;5029925;28;20076;-73
2023/01/24 08:46:59;;;;;;;30.77;14.35;;;;;;;0.87;95.66;103828.22;5030471;28;20476;-72
2023/01/24 08:49:24;;;;;;;26.90;13.35;;;;;;;0.89;96.23;103839.00;5033390;28;20497;-73
2023/01/24 08:51:58;;;;;;;27.00;13.52;;;;;;;0.89;95.94;103842.56;5030663;28;20118;-73
2023/01/24 08:54:27;;;;;;;30.15;14.80;;;;;;;0.88;95.17;103834.47;5028835;28;20037;-74
2023/01/24 08:56:52;;;;;;;32.38;14.32;;;;;;;0.86;95.63;103830.88;5030507;28;20495;-73
2023/01/24 08:59:18;;;;;;;31.45;14.10;;;;;;;0.87;95.52;103844.31;5030063;28;20041;-72
2023/01/24 09:01:43;;;;;;;30.23;13.63;;;;;;;0.88;95.80;103848.78;5029215;28;20045;-75
2023/01/24 09:04:11;;;;;;;23.48;11.73;;;;;;;0.91;95.94;103837.22;5032563;28;20507;-74
2023/01/24 09:06:36;;;;;;;29.02;12.95;;;;;;;0.91;95.82;103842.56;5028936;28;20045;-74
2023/01/24 09:09:03;;;;;;;30.15;14.52;;;;;;;0.92;96.17;103853.31;5029694;28;20036;-73
2023/01/24 09:11:29;;;;;;;27.23;14.23;;;;;;;0.93;96.00;103846.16;5030141;28;20084;-73
2023/01/24 09:13:55;;;;;;;29.75;12.73;;;;;;;0.93;96.07;103838.13;5029998;28;20120;-73
2023/01/24 09:16:20;;;;;;;32.08;14.65;;;;;;;0.93;95.87;103841.75;5041004;28;20545;-73
2023/01/24 09:18:46;;;;;;;30.92;13.20;;;;;;;0.95;96.15;103845.34;5045438;28;20535;-74
2023/01/24 09:21:11;;;;;;;34.92;15.40;;;;;;;0.93;95.21;103844.41;5030353;28;20523;-73
2023/01/24 09:23:37;;;;;;;28.20;13.80;;;;;;;0.95;95.31;103856.06;5034196;28;20029;-72
2023/01/24 09:26:02;;;;;;;25.00;12.30;;;;;;;0.94;94.96;103848.91;5049761;28;20037;-73
2023/01/24 09:28:28;;;;;;;29.35;12.55;;;;;;;0.95;94.87;103852.47;5048665;28;20032;-73
2023/01/24 09:30:53;;;;;;;24.65;13.70;;;;;;;0.93;95.04;103844.41;5038240;28;20048;-73
2023/01/24 09:33:19;;;;;;;29.02;12.88;;;;;;;0.94;95.35;103846.22;5040969;28;20484;-73
2023/01/24 09:35:56;;;;;;;31.63;14.52;;;;;;;0.97;94.83;103850.72;5032500;28;20501;-73
2023/01/24 09:38:22;;;;;;;30.90;13.90;;;;;;;0.98;94.90;103857.91;5028568;28;20059;-72
2023/01/24 09:41:17;;;;;;;28.23;14.05;;;;;;;1.00;95.13;103850.75;5029321;28;20116;-73
2023/01/24 09:44:07;;;;;;;24.73;11.80;;;;;;;0.97;94.66;103848.94;5029858;28;20409;-72
2023/01/24 09:46:38;;;;;;;27.90;12.52;;;;;;;0.99;95.32;103854.34;5028185;28;20037;-72
2023/01/24 09:49:07;;;;;;;33.55;14.00;;;;;;;1.01;95.11;103850.78;5031486;28;20029;-72
2023/01/24 09:51:37;;;;;;;28.38;13.63;;;;;;;1.01;94.68;103852.56;5029437;28;20037;-73
2023/01/24 09:54:05;;;;;;;32.22;15.48;;;;;;;1.03;94.81;103858.88;5029466;28;20108;-72
2023/01/24 09:56:41;;;;;;;30.13;12.57;;;;;;;1.06;94.72;103858.00;5028669;28;20026;-72
2023/01/24 09:59:43;;;;;;;27.60;13.20;;;;;;;1.07;94.81;103867.84;5029134;28;20044;-73
2023/01/24 10:02:20;;;;;;;26.33;13.20;;;;;;;1.09;95.44;103861.63;5009524;28;20107;-73
2023/01/24 10:04:47;;;;;;;26.73;12.15;;;;;;;1.12;94.95;103861.69;5029176;28;20511;-73
2023/01/24 10:07:38;;;;;;;29.55;13.52;;;;;;;1.17;95.29;103868.03;5029619;28;20044;-72
2023/01/24 10:10:19;;;;;;;28.33;12.88;;;;;;;1.15;94.80;103869.75;5029183;28;20497;-72
2023/01/24 10:13:08;;;;;;;33.00;13.55;;;;;;;1.19;94.81;103866.25;5029406;28;20400;-72
2023/01/24 10:16:05;;;;;;;32.70;14.10;;;;;;;1.21;94.44;103871.63;5028918;28;20041;-73
2023/01/24 10:18:42;;;;;;;28.27;12.50;;;;;;;1.21;94.39;103869.88;5031965;28;20048;-72
2023/01/24 10:21:32;;;;;;;32.03;13.85;;;;;;;1.23;94.38;103867.22;5028921;28;20038;-72
2023/01/24 10:24:01;;;;;;;29.63;11.15;;;;;;;1.19;93.85;103866.25;5028994;28;20480;-72
2023/01/24 10:26:46;;;;;;;28.13;12.48;;;;;;;1.21;94.57;103877.91;5029168;28;20040;-72
2023/01/24 10:29:24;;;;;;;27.95;13.27;;;;;;;1.19;94.32;103868.94;5029088;28;20103;-72
2023/01/24 10:32:03;;;;;;;28.33;12.60;;;;;;;1.19;94.63;103873.41;5030807;28;20033;-72
2023/01/24 10:34:37;;;;;;;29.10;12.43;;;;;;;1.20;93.59;103873.41;5042313;28;20033;-72
2023/01/24 10:37:17;;;;;;;27.52;12.98;;;;;;;1.22;93.38;103873.47;5047699;28;20045;-73
2023/01/24 10:39:43;;;;;;;28.50;12.52;;;;;;;1.17;93.53;103870.72;5035170;28;20121;-72
2023/01/24 10:42:23;;;;;;;21.85;12.10;;;;;;;1.20;93.37;103870.72;5029138;28;20141;-72
2023/01/24 10:44:49;;;;;;;29.58;13.75;;;;;;;1.21;94.02;103863.59;5040841;28;20053;-73
2023/01/24 10:47:56;;;;;;;28.23;13.27;;;;;;;1.26;94.12;103868.16;5047669;28;20200;-72
2023/01/24 10:50:23;;;;;;;22.58;10.82;;;;;;;1.24;92.86;103858.28;5043658;28;20163;-72
2023/01/24 10:52:49;;;;;;;22.45;10.32;;;;;;;1.23;92.67;103869.88;5048672;28;20114;-72
2023/01/24 10:55:25;;;;;;;23.85;11.07;;;;;;;1.21;93.33;103863.59;5028561;28;20059;-72
2023/01/24 10:57:54;;;;;;;21.70;11.35;;;;;;;1.24;93.37;103869.00;5028809;28;20380;-72
2023/01/24 11:00:33;;;;;;;22.02;10.88;;;;;;;1.22;92.49;103863.63;5028676;28;20477;-72
2023/01/24 11:03:21;;;;;;;23.45;10.75;;;;;;;1.22;92.58;103860.06;5028820;28;20493;-73
2023/01/24 11:05:52;;;;;;;25.80;11.52;;;;;;;1.25;92.32;103865.44;5031708;28;20052;-72
2023/01/24 11:08:21;;;;;;;24.95;12.63;;;;;;;1.23;92.12;103859.16;5032558;28;20033;-72
2023/01/24 11:10:51;;;;;;;26.88;12.35;;;;;;;1.23;92.54;103860.06;5051069;28;20410;-72
2023/01/24 11:13:36;;;;;;;22.98;11.13;;;;;;;1.24;91.65;103856.50;5052292;28;20043;-72
2023/01/24 11:16:06;;;;;;;23.63;11.65;;;;;;;1.27;91.62;103858.34;5039185;28;20111;-72
2023/01/24 11:18:33;;;;;;;23.98;11.00;;;;;;;1.29;91.50;103859.25;5050605;28;20072;-72
2023/01/24 11:21:05;;;;;;;23.15;11.32;;;;;;;1.27;92.13;103850.28;5031898;28;20083;-73
2023/01/24 11:23:31;;;;;;;25.85;10.77;;;;;;;1.26;91.92;103846.72;5031962;28;20539;-73
2023/01/24 11:26:01;;;;;;;21.00;10.63;;;;;;;1.27;91.54;103840.47;5032139;28;20037;-72
2023/01/24 11:28:35;;;;;;;24.70;11.18;;;;;;;1.29;91.65;103840.47;5032399;28;20041;-73
2023/01/24 11:31:30;;;;;;;21.50;11.27;;;;;;;1.32;92.15;103836.94;5031718;28;20124;-73
2023/01/24 11:34:05;;;;;;;22.98;11.00;;;;;;;1.33;92.31;103828.03;5045918;28;20068;-74
2023/01/24 11:36:42;;;;;;;23.27;11.45;;;;;;;1.35;92.01;103829.81;5030981;28;20044;-73
2023/01/24 11:39:22;;;;;;;23.85;11.35;;;;;;;1.37;92.55;103827.19;5039510;28;20068;-74
2023/01/24 11:42:15;;;;;;;25.33;10.77;;;;;;;1.38;91.06;103829.88;5051790;28;20040;-73
2023/01/24 11:45:13;;;;;;;24.50;11.77;;;;;;;1.42;91.66;103822.78;5039495;28;20520;-72
2023/01/24 11:48:08;;;;;;;23.42;10.90;;;;;;;1.47;92.77;103819.28;5031812;28;20528;-74
2023/01/24 11:50:50;;;;;;;23.73;12.35;;;;;;;1.48;91.91;103813.03;5031496;28;20033;-73
2023/01/24 11:53:43;;;;;;;23.10;11.25;;;;;;;1.50;91.77;103818.44;5030043;28;20124;-73
2023/01/24 11:56:08;;;;;;;;;;;;;;;1.53;91.89;103821.13;5030899;28;20048;-72
2023/01/24 11:58:43;;;;;;;21.92;10.85;;;;;;;1.53;91.80;103826.50;5032530;28;19909;-73
2023/01/24 12:01:12;;;;;;;21.30;11.07;;;;;;;1.52;90.99;103820.22;5051879;28;20043;-73
2023/01/24 12:04:25;;;;;;;24.02;12.32;;;;;;;1.54;92.13;103812.22;5047453;28;20436;-72
2023/01/24 12:07:00;;;;;;;21.08;10.63;;;;;;;1.56;91.36;103809.56;5030589;28;20124;-72